Time;durP1;ratioP1;P1;durP2;ratioP2;P2;SDS_P1;SDS_P2;PMS_P1;PMS_P2;Temp;Humidity;BMP_temperature;BMP_pressure;BME280_temperature;BME280_humidity;BME280_pressure;Samples;Min_cycle;Max_cycle;Signal;HPM_P1;HPM_P2
2022/05/21 00:02:17;;;;;;;;;4.00;2.67;;;;;16.95;60.53;101724.22;5015953;28;45237;-66
2022/05/21 00:04:42;;;;;;;;;2.33;2.33;;;;;17.00;60.32;101726.59;5023256;28;45517;-67
2022/05/21 00:07:10;;;;;;;;;3.00;3.00;;;;;17.03;60.49;101715.63;5035566;28;45836;-65
2022/05/21 00:09:36;;;;;;;;;2.00;2.00;;;;;17.04;60.45;101723.59;5029952;28;45588;-64
2022/05/21 00:12:02;;;;;;;;;5.33;2.00;;;;;17.00;60.57;101714.00;5035031;28;45283;-65
2022/05/21 00:14:29;;;;;;;;;2.00;2.00;;;;;17.00;60.49;101715.84;5029378;28;45623;-66
2022/05/21 00:16:54;;;;;;;;;4.00;4.00;;;;;17.01;60.63;101725.63;5029070;28;46182;-65
2022/05/21 00:19:20;;;;;;;;;3.33;1.67;;;;;17.00;60.54;101719.38;5034498;28;45557;-65
2022/05/21 00:21:45;;;;;;;;;4.00;3.00;;;;;16.98;60.44;101713.25;5036820;28;45296;-66
2022/05/21 00:24:10;;;;;;;;;3.33;3.00;;;;;16.92;60.85;101719.00;5034195;28;45589;-67
2022/05/21 00:26:36;;;;;;;;;9.00;2.67;;;;;16.92;60.97;101721.69;5022120;28;46092;-66
2022/05/21 00:29:01;;;;;;;;;2.00;2.00;;;;;16.88;61.00;101706.75;5021749;28;45311;-66
2022/05/21 00:31:27;;;;;;;;;2.33;2.33;;;;;16.90;61.13;101720.94;5037269;28;45326;-65
2022/05/21 00:33:54;;;;;;;;;4.00;4.00;;;;;16.92;61.57;101728.88;5034768;28;45358;-65
2022/05/21 00:36:20;;;;;;;;;3.67;3.67;;;;;16.89;60.94;101721.03;5029986;28;45695;-66
2022/05/21 00:38:46;;;;;;;;;4.33;3.33;;;;;16.90;61.47;101731.69;5033338;28;45466;-67
2022/05/21 00:41:15;;;;;;;;;2.33;2.33;;;;;16.88;61.28;101725.53;5018893;28;45329;-66
2022/05/21 00:43:52;;;;;;;;;1.00;1.00;;;;;16.86;61.61;101724.78;5020865;28;45237;-66
2022/05/21 00:46:29;;;;;;;;;4.00;4.00;;;;;16.86;61.32;101724.78;5018561;28;45347;-66
2022/05/21 00:49:03;;;;;;;;;6.67;2.33;;;;;16.84;61.35;101725.84;5018565;28;45383;-65
2022/05/21 00:51:34;;;;;;;;;6.33;4.00;;;;;16.85;61.42;101727.56;5035693;28;45526;-66
2022/05/21 00:54:02;;;;;;;;;2.67;2.33;;;;;16.79;61.27;101718.94;5034511;28;45338;-65
2022/05/21 00:56:33;;;;;;;;;4.67;2.67;;;;;16.76;61.49;101723.66;5018259;28;47545;-65
2022/05/21 01:01:49;;;;;;;;;3.67;3.67;;;;;16.71;61.58;101725.78;5019801;28;45225;-65
2022/05/21 01:04:15;;;;;;;;;3.67;2.33;;;;;16.66;61.91;101727.84;5018540;28;45467;-65
2022/05/21 01:06:41;;;;;;;;;4.00;2.67;;;;;16.62;61.80;101716.44;5034913;28;45931;-64
2022/05/21 01:09:07;;;;;;;;;5.00;3.00;;;;;16.68;61.98;101723.28;5035999;28;46102;-64
2022/05/21 01:11:35;;;;;;;;;7.67;3.00;;;;;16.61;62.07;101719.22;5039163;28;45375;-65
2022/05/21 01:14:02;;;;;;;;;3.00;3.00;;;;;16.59;62.01;101715.78;5037890;28;45280;-65
2022/05/21 01:16:29;;;;;;;;;4.00;4.00;;;;;16.58;62.19;101720.28;5050385;28;47436;-64
2022/05/21 01:18:56;;;;;;;;;4.00;3.00;;;;;16.56;61.95;101718.66;5031037;28;45437;-66
2022/05/21 01:21:21;;;;;;;;;3.00;2.00;;;;;16.53;62.01;101715.19;5018543;28;45339;-67
2022/05/21 01:23:47;;;;;;;;;3.67;3.00;;;;;16.50;62.29;101710.00;5032973;28;45472;-63
2022/05/21 01:26:21;;;;;;;;;4.00;2.00;;;;;16.47;62.28;101714.72;5038090;28;46418;-63
2022/05/21 01:28:48;;;;;;;;;4.67;3.00;;;;;16.51;61.86;101724.31;5037336;28;45836;-63
2022/05/21 01:31:13;;;;;;;;;5.00;1.00;;;;;16.48;62.07;101727.19;5036801;28;45442;-65
2022/05/21 01:33:42;;;;;;;;;3.00;2.00;;;;;16.43;62.80;101726.63;5035199;28;45399;-64
2022/05/21 01:36:08;;;;;;;;;2.33;2.33;;;;;16.42;62.08;101720.41;5038007;28;45475;-66
2022/05/21 01:38:36;;;;;;;;;5.00;4.00;;;;;16.37;62.22;101711.75;5030853;28;46215;-67
2022/05/21 01:41:02;;;;;;;;;3.67;2.67;;;;;16.41;62.48;101720.50;5016573;28;45355;-68
2022/05/21 01:46:15;;;;;;;;;4.67;3.00;;;;;16.43;62.36;101722.13;5034183;28;45696;-69
2022/05/21 01:48:41;;;;;;;;;4.67;3.33;;;;;16.43;62.36;101722.13;5036439;28;45470;-65
2022/05/21 01:51:07;;;;;;;;;3.67;2.67;;;;;16.47;62.46;101725.47;5024606;28;45387;-66
2022/05/21 01:53:33;;;;;;;;;3.00;3.00;;;;;16.49;62.01;101719.03;5024935;28;45749;-65
2022/05/21 01:56:00;;;;;;;;;3.00;3.00;;;;;16.50;62.15;101719.91;5052927;28;45911;-66
2022/05/21 01:58:26;;;;;;;;;4.00;2.00;;;;;16.49;62.24;101710.13;5051350;28;46135;-64
2022/05/21 02:00:52;;;;;;;;;4.00;3.00;;;;;16.46;62.06;101716.56;5032973;28;45456;-65
2022/05/21 02:03:18;;;;;;;;;6.00;2.33;;;;;16.49;61.82;101708.28;5037487;28;45510;-63
2022/05/21 02:05:44;;;;;;;;;2.00;2.00;;;;;16.52;61.70;101708.09;5035432;28;45790;-66
2022/05/21 02:08:12;;;;;;;;;2.00;2.00;;;;;16.51;61.88;101703.69;5033710;28;45256;-64
2022/05/21 02:10:38;;;;;;;;;3.33;2.00;;;;;16.49;61.68;101704.75;5017665;28;45324;-63
2022/05/21 02:13:05;;;;;;;;;4.33;3.00;;;;;16.52;62.11;101707.22;5026765;28;45457;-65
2022/05/21 02:15:30;;;;;;;;;2.00;2.00;;;;;16.53;61.43;101712.50;5023820;28;47776;-65
2022/05/21 02:17:57;;;;;;;;;4.00;4.00;;;;;16.56;61.49;101710.59;5018663;28;45265;-64
2022/05/21 02:20:22;;;;;;;;;2.00;2.00;;;;;16.56;61.43;101711.47;5034184;28;45738;-66
2022/05/21 02:22:48;;;;;;;;;7.00;3.67;;;;;16.56;61.16;101716.84;5037344;28;45457;-64
2022/05/21 02:25:16;;;;;;;;;2.67;2.67;;;;;16.53;61.07;101717.88;5034798;28;46043;-67
2022/05/21 02:27:42;;;;;;;;;3.00;3.00;;;;;16.52;61.37;101713.47;5032759;28;45421;-67
2022/05/21 02:30:08;;;;;;;;;3.67;3.00;;;;;16.56;61.22;101721.34;5032698;28;45333;-64
2022/05/21 02:32:33;;;;;;;;;2.00;2.00;;;;;16.50;61.43;101714.53;5036981;28;45342;-65
2022/05/21 02:34:59;;;;;;;;;4.00;3.00;;;;;16.56;61.20;101715.97;5035980;28;46183;-66
2022/05/21 02:40:09;;;;;;;;;0.00;0.00;;;;;16.56;61.14;101711.47;5031581;28;45306;-64
2022/05/21 02:42:43;;;;;;;;;3.00;2.00;;;;;16.55;60.85;101719.63;5022109;28;45514;-65
2022/05/21 02:45:15;;;;;;;;;3.00;2.00;;;;;16.57;60.69;101713.19;5022599;28;45323;-65
2022/05/21 02:47:41;;;;;;;;;5.33;3.00;;;;;16.59;61.19;101716.63;5035510;28;45866;-65
2022/05/21 02:50:07;;;;;;;;;3.00;3.00;;;;;16.61;60.97;101721.91;5038392;28;45364;-66
2022/05/21 02:52:32;;;;;;;;;4.00;2.33;;;;;16.60;61.04;101712.13;5017041;28;45304;-65
2022/05/21 02:54:58;;;;;;;;;4.00;2.33;;;;;16.62;60.48;101711.06;5028533;28;45710;-66
2022/05/21 02:57:24;;;;;;;;;4.00;3.00;;;;;16.59;60.19;101713.94;5034350;28;45258;-65
2022/05/21 02:59:50;;;;;;;;;2.67;2.67;;;;;16.58;60.33;101708.69;5034136;28;45487;-64
2022/05/21 03:02:17;;;;;;;;;2.67;2.67;;;;;16.60;60.67;101728.25;5036812;28;45580;-64
2022/05/21 03:04:42;;;;;;;;;2.00;1.00;;;;;16.56;59.77;101722.22;5033695;28;45512;-65
2022/05/21 03:07:08;;;;;;;;;2.67;2.00;;;;;16.57;59.55;101723.06;5036119;28;45319;-65
2022/05/21 03:12:18;;;;;;;;;2.00;2.00;;;;;16.57;59.97;101723.06;5036596;28;45402;-65
2022/05/21 03:14:43;;;;;;;;;4.00;3.00;;;;;16.56;60.64;101729.41;5034380;28;46101;-66
2022/05/21 03:17:08;;;;;;;;;1.67;1.67;;;;;16.57;60.91;101728.44;5016674;28;46132;-65
2022/05/21 03:19:35;;;;;;;;;2.00;2.00;;;;;16.57;60.73;101718.56;5033815;28;45427;-66
2022/05/21 03:22:01;;;;;;;;;2.00;2.00;;;;;16.54;60.86;101721.44;5037053;28;45490;-66
2022/05/21 03:24:28;;;;;;;;;2.67;2.00;;;;;16.51;60.87;101714.44;5034511;28;45372;-66
2022/05/21 03:26:54;;;;;;;;;2.00;2.00;;;;;16.55;61.03;101716.94;5034769;28;45339;-67
2022/05/21 03:29:20;;;;;;;;;2.67;2.67;;;;;16.56;60.52;101721.34;5035463;28;45450;-69
2022/05/21 03:31:45;;;;;;;;;2.00;2.00;;;;;16.53;60.56;101723.25;5028395;28;45620;-68
2022/05/21 03:34:11;;;;;;;;;3.00;2.00;;;;;16.59;60.54;101734.56;5023828;28;46087;-66
2022/05/21 03:36:36;;;;;;;;;2.00;2.00;;;;;16.55;60.08;101720.50;5034853;28;45259;-64
2022/05/21 03:39:03;;;;;;;;;4.33;3.00;;;;;16.58;59.59;101731.03;5034409;28;45677;-66
2022/05/21 03:41:29;;;;;;;;;2.00;1.67;;;;;16.60;59.69;101722.88;5039060;28;45597;-65
2022/05/21 03:43:55;;;;;;;;;2.00;2.00;;;;;16.55;59.96;101714.25;5035032;28;46156;-66
2022/05/21 03:46:21;;;;;;;;;2.00;2.00;;;;;16.56;59.56;101715.97;5033649;28;45446;-65
2022/05/21 03:48:46;;;;;;;;;1.33;1.33;;;;;16.53;59.65;101711.63;5016773;28;45356;-66
2022/05/21 03:51:12;;;;;;;;;2.33;2.33;;;;;16.57;59.44;101712.31;5015050;28;45571;-65
2022/05/21 03:53:38;;;;;;;;;3.00;3.00;;;;;16.56;58.58;101724.91;5016757;28;45223;-66
2022/05/21 03:56:05;;;;;;;;;2.00;2.00;;;;;16.56;58.99;101724.03;5036144;28;45605;-65
2022/05/21 03:58:31;;;;;;;;;2.00;2.00;;;;;16.56;58.78;101729.41;5035158;28;45449;-65
2022/05/21 04:00:57;;;;;;;;;2.33;2.00;;;;;16.60;58.59;101738.97;5034799;28;45591;-65
2022/05/21 04:03:23;;;;;;;;;1.33;1.00;;;;;16.61;58.65;101735.34;5032619;28;45406;-66
2022/05/21 04:05:48;;;;;;;;;1.67;1.00;;;;;16.57;57.96;101739.19;5037701;28;45455;-67
2022/05/21 04:08:16;;;;;;;;;2.00;1.00;;;;;16.58;58.12;101730.16;5036523;28;45509;-66
2022/05/21 04:10:42;;;;;;;;;1.67;0.33;;;;;16.56;57.85;101732.09;5019178;28;45676;-65
2022/05/21 04:13:07;;;;;;;;;2.00;2.00;;;;;16.57;58.09;101731.13;5018501;28;45459;-67
2022/05/21 04:15:34;;;;;;;;;2.33;1.00;;;;;16.55;57.94;101725.84;5037178;28;45195;-65
2022/05/21 04:18:00;;;;;;;;;1.00;1.00;;;;;16.53;57.95;101735.81;5047975;28;45754;-67
2022/05/21 04:20:26;;;;;;;;;2.33;1.00;;;;;16.51;57.85;101741.28;5030865;28;45664;-65
2022/05/21 04:22:51;;;;;;;;;4.33;2.67;;;;;16.52;57.44;101724.19;5017873;28;45803;-65
2022/05/21 04:25:17;;;;;;;;;1.00;1.00;;;;;16.59;58.15;101723.84;5020968;28;45474;-65
2022/05/21 04:27:43;;;;;;;;;3.00;1.00;;;;;16.58;57.08;101730.16;5017767;28;45339;-68
2022/05/21 04:30:14;;;;;;;;;2.00;2.00;;;;;16.56;57.54;101727.59;5018568;28;45615;-64
2022/05/21 04:32:39;;;;;;;;;1.33;1.33;;;;;16.63;58.29;101736.09;5018954;28;45594;-65
2022/05/21 04:35:06;;;;;;;;;3.33;2.33;;;;;16.58;57.30;101740.91;5036156;28;45763;-66
2022/05/21 04:37:31;;;;;;;;;7.00;2.00;;;;;16.62;57.47;101739.75;5018301;28;45385;-67
2022/05/21 04:39:57;;;;;;;;;3.00;3.00;;;;;16.63;58.15;101734.28;5018928;28;45516;-65
2022/05/21 04:42:22;;;;;;;;;4.00;2.33;;;;;16.66;57.95;101733.22;5022171;28;45459;-67
2022/05/21 04:44:47;;;;;;;;;3.67;1.67;;;;;16.65;57.43;101729.66;5031271;28;45541;-64
2022/05/21 04:47:13;;;;;;;;;2.00;2.00;;;;;16.69;56.91;101738.44;5038680;28;45267;-65
2022/05/21 04:49:38;;;;;;;;;2.00;2.00;;;;;16.70;57.26;101729.44;5032062;28;45498;-65
2022/05/21 04:52:04;;;;;;;;;2.33;2.00;;;;;16.63;57.22;101728.03;5052328;28;46093;-65
2022/05/21 04:54:30;;;;;;;;;0.00;0.00;;;;;16.72;57.81;101727.50;5054034;28;45416;-65
2022/05/21 04:56:55;;;;;;;;;4.33;1.67;;;;;16.75;57.36;101721.94;5049337;28;45273;-65
2022/05/21 04:59:21;;;;;;;;;2.00;2.00;;;;;16.76;57.44;101726.34;5050550;28;45390;-64
2022/05/21 05:01:46;;;;;;;;;2.00;1.00;;;;;16.73;56.75;101723.84;5041843;28;45628;-64
2022/05/21 05:04:12;;;;;;;;;0.00;0.00;;;;;16.61;57.00;101703.97;5038387;28;45375;-65
2022/05/21 05:06:39;;;;;;;;;1.00;1.00;;;;;16.73;56.33;101732.78;5033359;28;45346;-66
2022/05/21 05:09:06;;;;;;;;;2.00;1.00;;;;;16.73;56.61;101723.84;5038685;28;45536;-67
2022/05/21 05:11:32;;;;;;;;;1.00;1.00;;;;;16.75;56.83;101722.78;5057698;28;45300;-65
2022/05/21 05:13:58;;;;;;;;;1.33;1.33;;;;;16.79;56.64;101728.81;5027963;28;45427;-65
2022/05/21 05:16:23;;;;;;;;;1.00;1.00;;;;;16.78;56.05;101727.09;5027877;28;46182;-66
2022/05/21 05:18:49;;;;;;;;;1.00;1.00;;;;;16.82;56.49;101720.59;5037277;28;45482;-66
2022/05/21 05:21:14;;;;;;;;;4.33;3.00;;;;;16.82;56.26;101728.66;5030801;28;46089;-67
2022/05/21 05:23:39;;;;;;;;;2.00;2.00;;;;;16.78;56.43;101732.47;5042843;28;45462;-65
2022/05/21 05:26:05;;;;;;;;;4.00;2.00;;;;;16.88;56.85;101733.59;5040992;28;45319;-67
2022/05/21 05:28:30;;;;;;;;;2.00;2.00;;;;;16.93;56.16;101726.13;5037816;28;45700;-67
2022/05/21 05:30:56;;;;;;;;;1.00;1.00;;;;;16.97;55.29;101730.34;5035012;28;45640;-66
2022/05/21 05:33:22;;;;;;;;;2.00;1.67;;;;;17.04;55.40;101722.72;5027620;28;45639;-66
2022/05/21 05:35:48;;;;;;;;;1.33;0.67;;;;;17.06;55.80;101712.75;5023029;28;45298;-67
2022/05/21 05:38:15;;;;;;;;;4.00;1.33;;;;;17.06;55.34;101713.63;5034882;28;45648;-66
2022/05/21 05:40:42;;;;;;;;;1.00;1.00;;;;;17.07;55.48;101727.91;5029627;28;46043;-65
2022/05/21 05:43:08;;;;;;;;;1.00;1.00;;;;;17.16;55.27;101723.75;5049943;28;45330;-66
2022/05/21 05:45:33;;;;;;;;;3.00;1.33;;;;;17.23;55.35;101717.03;5031599;28;45374;-67
2022/05/21 05:47:59;;;;;;;;;3.00;1.00;;;;;17.33;54.60;101718.16;5032003;28;45504;-66
2022/05/21 05:50:25;;;;;;;;;1.00;1.00;;;;;17.39;54.75;101713.19;5034165;28;45999;-66
2022/05/21 05:52:50;;;;;;;;;1.00;0.00;;;;;17.42;54.05;101716.66;5035271;28;45794;-65
2022/05/21 05:55:16;;;;;;;;;1.67;0.67;;;;;17.42;53.95;101717.50;5029668;28;45569;-64
2022/05/21 05:57:41;;;;;;;;;1.00;1.00;;;;;17.39;53.98;101712.34;5041747;28;45600;-64
2022/05/21 06:00:08;;;;;;;;;1.00;1.00;;;;;17.42;53.30;101716.66;5035632;28;46603;-64
2022/05/21 06:05:20;;;;;;;;;0.67;0.67;;;;;17.41;53.40;101734.59;5037789;28;45331;-66
2022/05/21 06:07:48;;;;;;;;;1.00;1.00;;;;;17.42;53.75;101733.63;5037073;28;45531;-65
2022/05/21 06:10:18;;;;;;;;;3.33;1.33;;;;;17.39;53.39;101723.97;5021006;28;45418;-66
2022/05/21 06:12:44;;;;;;;;;1.67;1.00;;;;;17.39;54.03;101718.56;5021248;28;45640;-64
2022/05/21 06:15:11;;;;;;;;;1.00;1.00;;;;;17.42;53.02;101728.25;5035394;28;45366;-67
2022/05/21 06:17:37;;;;;;;;;2.33;1.67;;;;;17.34;53.52;101727.94;5035248;28;45628;-66
2022/05/21 06:20:05;;;;;;;;;3.67;2.00;;;;;17.32;53.24;101724.50;5031457;28;46383;-67
2022/05/21 06:22:32;;;;;;;;;2.33;1.00;;;;;17.31;53.20;101720.03;5016696;28;45430;-69
2022/05/21 06:24:58;;;;;;;;;4.33;1.33;;;;;17.34;53.43;101733.31;5020174;28;45408;-65
2022/05/21 06:27:24;;;;;;;;;5.33;4.00;;;;;17.40;55.16;101724.81;5017382;28;45260;-65
2022/05/21 06:29:49;;;;;;;;;8.00;4.33;;;;;17.53;55.70;101724.84;5033524;28;47439;-64
2022/05/21 06:32:15;;;;;;;;;3.00;3.00;;;;;17.63;55.61;101726.84;5037041;28;45281;-68
2022/05/21 06:34:40;;;;;;;;;3.00;3.00;;;;;17.68;54.03;101730.09;5051800;28;45470;-66
2022/05/21 06:37:08;;;;;;;;;4.67;4.67;;;;;17.66;55.85;101723.06;5035802;28;45370;-76
2022/05/21 06:39:35;;;;;;;;;3.00;3.00;;;;;17.72;55.48;101720.00;5034418;28;47075;-70
2022/05/21 06:42:02;;;;;;;;;3.00;3.00;;;;;17.73;56.12;101726.25;5036858;28;45303;-67
2022/05/21 06:44:28;;;;;;;;;3.00;3.00;;;;;17.76;56.29;101731.41;5027828;28;45368;-65
2022/05/21 06:46:54;;;;;;;;;3.00;2.67;;;;;17.81;55.60;101731.94;5015729;28;45762;-73
2022/05/21 06:49:20;;;;;;;;;6.00;5.00;;;;;17.86;55.44;101737.91;5019416;28;45994;-67
2022/05/21 06:51:45;;;;;;;;;3.67;3.67;;;;;17.88;55.62;101738.66;5021503;28;45605;-65
2022/05/21 06:54:11;;;;;;;;;2.33;2.00;;;;;17.97;55.60;101729.97;5033457;28;45376;-66
2022/05/21 06:56:40;;;;;;;;;3.00;3.00;;;;;17.96;54.84;101717.44;5036813;28;45342;-64
2022/05/21 06:59:05;;;;;;;;;5.33;3.00;;;;;18.02;54.65;101726.94;5033972;28;46479;-71
2022/05/21 07:01:31;;;;;;;;;4.00;3.00;;;;;18.03;54.80;101737.59;5016592;28;45231;-72
2022/05/21 07:03:57;;;;;;;;;2.33;2.33;;;;;18.07;54.30;101736.41;5022179;28;45532;-67
2022/05/21 07:09:06;;;;;;;;;3.00;3.00;;;;;18.05;54.30;101730.28;5036252;28;45304;-64
2022/05/21 07:11:32;;;;;;;;;3.00;3.00;;;;;18.12;54.67;101738.78;5035212;28;45453;-79
2022/05/21 07:13:58;;;;;;;;;3.00;3.00;;;;;18.19;53.16;101738.25;5035124;28;45422;-67
2022/05/21 07:16:24;;;;;;;;;2.67;2.67;;;;;18.21;52.84;101730.91;5032011;28;45445;-69
2022/05/21 07:18:49;;;;;;;;;1.67;1.67;;;;;18.24;53.75;101733.41;5034747;28;46513;-74
2022/05/21 07:21:17;;;;;;;;;2.67;2.67;;;;;18.34;52.82;101738.13;5035182;28;45343;-72
2022/05/21 07:23:43;;;;;;;;;2.00;2.00;;;;;18.27;52.31;101735.88;5034098;28;45533;-68
2022/05/21 07:26:08;;;;;;;;;2.33;2.33;;;;;18.32;52.26;101737.38;5015267;28;45346;-70
2022/05/21 07:28:34;;;;;;;;;2.33;1.00;;;;;18.39;52.26;101736.00;5016577;28;45613;-73
2022/05/21 07:30:59;;;;;;;;;1.00;1.00;;;;;18.41;51.41;101739.44;5016189;28;45328;-72
2022/05/21 07:33:25;;;;;;;;;6.33;3.67;;;;;18.41;51.39;101739.44;5016112;28;45543;-66
2022/05/21 07:35:51;;;;;;;;;3.67;2.00;;;;;18.50;51.89;101738.78;5015918;28;45437;-66
2022/05/21 07:38:17;;;;;;;;;1.33;1.33;;;;;18.50;51.43;101742.34;5015744;28;46112;-66
2022/05/21 07:40:45;;;;;;;;;2.00;2.00;;;;;18.62;51.50;101737.94;5028432;28;47041;-66
2022/05/21 07:43:12;;;;;;;;;1.00;1.00;;;;;18.70;50.42;101738.25;5033190;28;45370;-65
2022/05/21 07:45:39;;;;;;;;;2.00;2.00;;;;;18.83;50.68;101724.75;5036374;28;45549;-66
2022/05/21 07:48:06;;;;;;;;;4.00;3.00;;;;;18.96;50.60;101735.50;5063252;28;45490;-67
2022/05/21 07:50:31;;;;;;;;;1.33;1.33;;;;;18.98;50.75;101736.25;5020613;28;45458;-69
2022/05/21 07:52:57;;;;;;;;;4.00;4.00;;;;;19.08;50.54;101730.06;5014262;28;45218;-69
2022/05/21 07:55:24;;;;;;;;;3.00;1.00;;;;;19.18;50.11;101719.47;5013892;28;45297;-66
2022/05/21 07:57:49;;;;;;;;;3.00;3.00;;;;;19.29;49.89;101732.16;5015167;28;45269;-68
2022/05/21 08:00:17;;;;;;;;;4.00;3.00;;;;;19.24;50.05;101719.00;5031162;28;45308;-71
2022/05/21 08:02:45;;;;;;;;;1.67;1.67;;;;;19.36;50.57;101733.41;5016968;28;45441;-72
2022/05/21 08:05:11;;;;;;;;;2.00;2.00;;;;;19.45;49.24;101722.78;5018228;28;45618;-73
2022/05/21 08:07:37;;;;;;;;;0.67;0.67;;;;;19.52;48.46;101730.41;5015202;28;45390;-68
2022/05/21 08:10:04;;;;;;;;;0.33;0.33;;;;;19.64;48.36;101729.50;5015560;28;45323;-70
2022/05/21 08:12:30;;;;;;;;;3.00;3.00;;;;;19.74;48.94;101730.53;5015650;28;45277;-68
2022/05/21 08:14:55;;;;;;;;;2.00;2.00;;;;;19.84;48.94;101722.59;5025157;28;45516;-68
2022/05/21 08:17:21;;;;;;;;;2.00;2.00;;;;;19.94;49.24;101724.47;5034902;28;45285;-69
2022/05/21 08:19:46;;;;;;;;;2.00;2.00;;;;;20.11;48.91;101720.44;5032612;28;45512;-68
2022/05/21 08:27:41;;;;;;;;;2.33;2.33;;;;;20.67;47.60;101714.25;5023213;28;45789;-66
2022/05/21 08:30:07;;;;;;;;;2.67;2.67;;;;;20.87;46.58;101716.19;5023912;28;45492;-67
2022/05/21 08:32:35;;;;;;;;;3.33;3.00;;;;;21.08;46.46;101717.13;5032290;28;45532;-66
2022/05/21 08:35:01;;;;;;;;;4.67;3.67;;;;;21.34;46.91;101709.59;5038456;28;45488;-70
2022/05/21 08:37:27;;;;;;;;;2.00;2.00;;;;;21.66;46.09;101717.72;5031591;28;46056;-67
2022/05/21 08:39:53;;;;;;;;;3.00;3.00;;;;;21.90;45.10;101711.19;5024008;28;45437;-67
2022/05/21 08:42:47;;;;;;;;;2.50;2.50;;;;;22.13;43.17;101699.22;5015089;28;45323;-68
2022/05/21 08:45:19;;;;;;;;;2.00;2.00;;;;;22.42;44.60;101706.66;5025562;28;45568;-66
2022/05/21 08:47:54;;;;;;;;;3.75;2.50;;;;;22.54;44.32;101698.31;5022431;28;45517;-66
2022/05/21 08:50:21;;;;;;;;;2.00;2.00;;;;;22.67;43.75;101695.34;5042804;28;46025;-65
2022/05/21 08:52:57;;;;;;;;;4.75;4.75;;;;;22.91;43.42;101701.28;5036818;28;45313;-66
2022/05/21 08:55:31;;;;;;;;;3.25;3.25;;;;;23.04;43.28;101701.03;5038030;28;45327;-67
2022/05/21 08:58:03;;;;;;;;;3.00;3.00;;;;;23.37;43.24;101699.81;5021180;28;45473;-65
2022/05/21 09:00:40;;;;;;;;;6.50;4.00;;;;;23.55;41.33;101689.06;5017807;28;45426;-66
2022/05/21 09:03:14;;;;;;;;;4.50;4.50;;;;;23.69;40.75;101696.81;5018131;28;45319;-67
2022/05/21 09:05:45;;;;;;;;;0.75;0.75;;;;;23.83;42.17;101690.09;5025192;28;45422;-66
2022/05/21 09:08:14;;;;;;;;;2.00;2.00;;;;;24.05;41.79;101697.91;5038069;28;46610;-67
2022/05/21 09:11:17;;;;;;;;;0.25;0.25;;;;;24.31;41.25;101697.28;5037719;28;45504;-65
2022/05/21 09:14:02;;;;;;;;;1.25;1.25;;;;;24.33;38.87;101687.97;4999421;28;45537;-66
2022/05/21 09:19:11;;;;;;;;;1.00;1.00;;;;;25.03;39.85;101679.38;5032333;28;45509;-69
2022/05/21 09:21:43;;;;;;;;;4.00;3.00;;;;;25.29;38.66;101667.56;5040151;28;45835;-65
2022/05/21 09:24:09;;;;;;;;;2.00;2.00;;;;;25.61;40.11;101668.84;5047952;28;45264;-66
2022/05/21 09:26:50;;;;;;;;;2.25;2.00;;;;;25.92;38.39;101671.16;5040040;28;45392;-64
2022/05/21 09:29:21;;;;;;;;;2.00;2.00;;;;;26.10;38.13;101666.50;5040331;28;45672;-65
2022/05/21 09:31:47;;;;;;;;;3.00;2.20;;;;;26.28;38.62;101652.78;5035129;28;45284;-67
2022/05/21 09:34:19;;;;;;;;;2.20;2.20;;;;;26.49;38.00;101657.88;5024724;28;45394;-64
2022/05/21 09:36:45;;;;;;;;;2.75;2.75;;;;;26.58;37.67;101654.19;5017716;28;45466;-65
2022/05/21 09:39:10;;;;;;;;;3.00;3.00;;;;;26.46;38.69;101650.88;5045620;28;45373;-66
2022/05/21 09:41:37;;;;;;;;;2.00;2.00;;;;;26.64;37.49;101650.78;5050649;28;45428;-68
2022/05/21 09:47:10;;;;;;;;;4.00;2.25;;;;;27.17;36.71;101652.31;5035700;28;45241;-65
2022/05/21 09:49:36;;;;;;;;;2.20;2.20;;;;;27.28;36.90;101647.38;5034937;28;45410;-65
2022/05/21 09:52:08;;;;;;;;;1.00;1.00;;;;;27.26;35.42;101649.41;5036786;28;45445;-66
2022/05/21 09:54:40;;;;;;;;;1.00;1.00;;;;;27.56;35.86;101644.28;5036663;28;46328;-68
2022/05/21 09:57:22;;;;;;;;;3.20;0.60;;;;;27.82;34.70;101639.53;5045705;28;45416;-67
2022/05/21 10:00:16;;;;;;;;;1.60;1.00;;;;;28.31;34.62;101644.06;5055973;28;46236;-66
2022/05/21 10:02:45;;;;;;;;;1.00;1.00;;;;;28.53;33.67;101621.41;5039881;28;45481;-66
2022/05/21 10:05:49;;;;;;;;;1.80;0.80;;;;;28.67;33.49;101622.53;5031124;28;45425;-75
2022/05/21 10:11:26;;;;;;;;;4.00;1.40;;;;;28.64;33.24;101642.00;5029359;28;45476;-66
2022/05/21 10:14:01;;;;;;;;;1.60;1.60;;;;;28.63;32.85;101635.69;5036607;28;45223;-64
2022/05/21 10:16:44;;;;;;;;;1.80;1.80;;;;;28.44;33.57;101636.13;5026465;28;45262;-67
2022/05/21 10:19:35;;;;;;;;;3.80;2.00;;;;;28.02;33.81;101631.81;5020102;28;45687;-68
2022/05/21 10:22:20;;;;;;;;;3.60;1.60;;;;;27.73;33.51;101629.63;5037901;28;46146;-67
2022/05/21 10:25:03;;;;;;;;;2.60;1.60;;;;;27.41;33.37;101640.53;5038233;28;45277;-66
2022/05/21 10:27:53;;;;;;;;;2.00;2.00;;;;;26.95;34.98;101635.50;5054598;28;45250;-68
2022/05/21 10:30:28;;;;;;;;;2.40;2.40;;;;;26.51;34.79;101634.03;5047284;28;45408;-66
2022/05/21 10:33:23;;;;;;;;;4.20;4.20;;;;;25.94;34.82;101645.47;5016818;28;45565;-64
2022/05/21 10:36:26;;;;;;;;;1.00;1.00;;;;;25.45;35.28;101639.59;5015239;28;45394;-67
2022/05/21 10:39:10;;;;;;;;;4.60;2.20;;;;;25.01;36.59;101633.25;5048315;28;45488;-62
2022/05/21 10:41:55;;;;;;;;;2.00;2.00;;;;;24.84;37.85;101640.34;5057095;28;45313;-66
2022/05/21 10:44:47;;;;;;;;;3.00;3.00;;;;;24.51;38.06;101635.53;5049375;28;45979;-66
2022/05/21 10:47:24;;;;;;;;;3.80;2.20;;;;;24.21;38.81;101642.06;5037318;28;45429;-68
2022/05/21 10:50:16;;;;;;;;;2.00;2.00;;;;;24.01;39.13;101635.84;5035586;28;45247;-63
2022/05/21 10:53:04;;;;;;;;;2.00;2.00;;;;;23.78;39.61;101638.91;5038916;28;45440;-66
2022/05/21 10:55:57;;;;;;;;;4.50;3.75;;;;;23.70;39.70;101633.38;5041181;28;46842;-66
2022/05/21 10:58:48;;;;;;;;;3.60;2.60;;;;;23.42;40.10;101624.19;5026553;28;45287;-70
2022/05/21 11:01:22;;;;;;;;;1.00;1.00;;;;;23.29;40.21;101620.06;5046973;28;45508;-64
2022/05/21 11:04:10;;;;;;;;;1.75;1.75;;;;;23.42;40.67;101616.06;5028884;28;45259;-68
2022/05/21 11:06:42;;;;;;;;;4.00;2.50;;;;;23.47;40.79;101607.50;5025151;28;45511;-59
2022/05/21 11:09:20;;;;;;;;;5.75;4.75;;;;;23.20;40.87;101600.97;5023328;28;45554;-67
2022/05/21 11:11:55;;;;;;;;;2.75;2.75;;;;;23.40;41.01;101603.63;5017859;28;45493;-59
2022/05/21 11:14:29;;;;;;;;;1.75;1.75;;;;;23.59;40.34;101595.50;5045171;28;45411;-62
2022/05/21 11:17:24;;;;;;;;;1.00;1.00;;;;;23.49;40.57;101597.34;5042589;28;45516;-62
2022/05/21 11:20:20;;;;;;;;;2.00;2.00;;;;;23.50;40.45;101599.91;5031942;28;45564;-60
2022/05/21 11:23:10;;;;;;;;;2.50;2.50;;;;;23.64;39.95;101595.91;5016817;28;45315;-61
2022/05/21 11:25:41;;;;;;;;;3.75;2.25;;;;;23.72;39.53;101597.91;5028228;28;45421;-65
2022/05/21 11:28:40;;;;;;;;;2.75;2.75;;;;;23.85;39.82;101597.59;5040789;28;45351;-66
2022/05/21 11:31:11;;;;;;;;;1.50;1.50;;;;;23.87;39.36;101584.72;5021940;28;45642;-72
2022/05/21 11:39:17;;;;;;;;;1.50;1.50;;;;;23.44;40.25;101583.38;5033959;28;45643;-64
2022/05/21 11:42:00;;;;;;;;;1.50;1.50;;;;;23.35;40.18;101585.09;5031804;28;45411;-67
2022/05/21 11:45:01;;;;;;;;;4.00;2.50;;;;;23.31;40.30;101577.34;5028413;28;45467;-64
2022/05/21 11:47:26;;;;;;;;;1.25;1.00;;;;;23.29;40.07;101574.78;5021317;28;45393;-66
2022/05/21 11:49:59;;;;;;;;;3.00;3.00;;;;;23.33;40.81;101564.53;5022747;28;45370;-65
2022/05/21 11:52:28;;;;;;;;;2.25;2.25;;;;;23.55;39.73;101569.59;5034504;28;45402;-65
2022/05/21 11:54:53;;;;;;;;;4.50;3.50;;;;;23.44;40.03;101565.22;5022841;28;45404;-64
2022/05/21 11:57:30;;;;;;;;;1.00;1.00;;;;;23.30;40.44;101562.94;5036685;28;45363;-65
2022/05/21 11:59:56;;;;;;;;;2.00;2.00;;;;;23.50;40.66;101556.47;5037195;28;45505;-68
2022/05/21 12:02:23;;;;;;;;;2.00;2.00;;;;;23.61;39.99;101557.34;5027795;28;45463;-71
2022/05/21 12:04:52;;;;;;;;;2.00;2.00;;;;;23.76;39.81;101551.28;5023703;28;45387;-63
2022/05/21 12:07:46;;;;;;;;;2.00;2.00;;;;;24.06;39.30;101542.00;5037008;28;45483;-64
2022/05/21 12:10:17;;;;;;;;;3.75;2.00;;;;;24.35;38.58;101535.56;5033419;28;45483;-55
2022/05/21 12:12:58;;;;;;;;;2.20;1.20;;;;;24.58;38.75;101536.84;5024380;28;45428;-56